sensor_id;sensor_type;location;lat;lon;timestamp;temperature;humidity
2523;DHT22;1272;53.332;9.860;2023-07-29T00:01:59;17.60;99.90
2523;DHT22;1272;53.332;9.860;2023-07-29T00:04:25;17.60;99.90
2523;DHT22;1272;53.332;9.860;2023-07-29T00:06:50;17.60;99.90
2523;DHT22;1272;53.332;9.860;2023-07-29T00:09:16;17.60;99.90
2523;DHT22;1272;53.332;9.860;2023-07-29T00:11:42;17.60;99.90
2523;DHT22;1272;53.332;9.860;2023-07-29T00:14:07;17.50;99.90
2523;DHT22;1272;53.332;9.860;2023-07-29T00:16:33;17.50;99.90
2523;DHT22;1272;53.332;9.860;2023-07-29T00:18:59;17.50;99.90
2523;DHT22;1272;53.332;9.860;2023-07-29T00:21:24;17.40;99.90
2523;DHT22;1272;53.332;9.860;2023-07-29T00:23:50;17.40;99.90
2523;DHT22;1272;53.332;9.860;2023-07-29T00:26:15;17.40;99.90
2523;DHT22;1272;53.332;9.860;2023-07-29T00:28:41;17.30;99.90
2523;DHT22;1272;53.332;9.860;2023-07-29T00:31:07;17.30;99.90
2523;DHT22;1272;53.332;9.860;2023-07-29T00:33:32;17.30;99.90
2523;DHT22;1272;53.332;9.860;2023-07-29T00:35:58;17.30;99.90
2523;DHT22;1272;53.332;9.860;2023-07-29T00:38:27;17.30;99.90
2523;DHT22;1272;53.332;9.860;2023-07-29T00:40:53;17.30;99.90
2523;DHT22;1272;53.332;9.860;2023-07-29T00:43:18;17.20;99.90
2523;DHT22;1272;53.332;9.860;2023-07-29T00:45:44;17.20;99.90
2523;DHT22;1272;53.332;9.860;2023-07-29T00:48:10;17.30;99.90
2523;DHT22;1272;53.332;9.860;2023-07-29T00:50:36;17.30;99.90
2523;DHT22;1272;53.332;9.860;2023-07-29T00:53:02;17.30;99.90
2523;DHT22;1272;53.332;9.860;2023-07-29T00:55:28;17.30;99.90
2523;DHT22;1272;53.332;9.860;2023-07-29T00:57:54;17.30;99.90
2523;DHT22;1272;53.332;9.860;2023-07-29T01:00:21;17.30;99.90
2523;DHT22;1272;53.332;9.860;2023-07-29T01:02:47;17.30;99.90
2523;DHT22;1272;53.332;9.860;2023-07-29T01:05:15;17.30;99.90
2523;DHT22;1272;53.332;9.860;2023-07-29T01:07:56;17.30;99.90
2523;DHT22;1272;53.332;9.860;2023-07-29T01:13:39;17.40;99.90
2523;DHT22;1272;53.332;9.860;2023-07-29T01:16:20;17.50;99.90
2523;DHT22;1272;53.332;9.860;2023-07-29T01:18:47;17.50;99.90
2523;DHT22;1272;53.332;9.860;2023-07-29T01:21:16;17.50;99.90
2523;DHT22;1272;53.332;9.860;2023-07-29T01:23:42;17.60;99.90
2523;DHT22;1272;53.332;9.860;2023-07-29T01:26:08;17.60;99.90
2523;DHT22;1272;53.332;9.860;2023-07-29T01:28:34;17.70;99.90
2523;DHT22;1272;53.332;9.860;2023-07-29T01:31:25;17.80;99.90
2523;DHT22;1272;53.332;9.860;2023-07-29T01:34:06;17.80;99.90
2523;DHT22;1272;53.332;9.860;2023-07-29T01:36:37;17.80;99.90
2523;DHT22;1272;53.332;9.860;2023-07-29T01:39:06;17.80;99.90
2523;DHT22;1272;53.332;9.860;2023-07-29T01:41:34;17.80;99.90
2523;DHT22;1272;53.332;9.860;2023-07-29T01:44:00;17.80;99.90
2523;DHT22;1272;53.332;9.860;2023-07-29T01:46:26;17.80;99.90
2523;DHT22;1272;53.332;9.860;2023-07-29T01:48:52;17.80;99.90
2523;DHT22;1272;53.332;9.860;2023-07-29T01:51:18;17.80;99.90
2523;DHT22;1272;53.332;9.860;2023-07-29T01:53:43;17.80;99.90
2523;DHT22;1272;53.332;9.860;2023-07-29T01:56:09;17.80;99.90
2523;DHT22;1272;53.332;9.860;2023-07-29T01:58:35;17.80;99.90
2523;DHT22;1272;53.332;9.860;2023-07-29T02:01:00;17.80;99.90
2523;DHT22;1272;53.332;9.860;2023-07-29T02:03:26;17.80;99.90
2523;DHT22;1272;53.332;9.860;2023-07-29T02:05:52;17.80;99.90
2523;DHT22;1272;53.332;9.860;2023-07-29T02:08:17;17.80;99.90
2523;DHT22;1272;53.332;9.860;2023-07-29T02:10:43;17.80;99.90
2523;DHT22;1272;53.332;9.860;2023-07-29T02:13:11;17.80;99.90
2523;DHT22;1272;53.332;9.860;2023-07-29T02:15:36;17.80;99.90
2523;DHT22;1272;53.332;9.860;2023-07-29T02:18:02;17.80;99.90
2523;DHT22;1272;53.332;9.860;2023-07-29T02:20:29;17.80;99.90
2523;DHT22;1272;53.332;9.860;2023-07-29T02:22:54;17.80;99.90
2523;DHT22;1272;53.332;9.860;2023-07-29T02:25:20;17.80;99.90
2523;DHT22;1272;53.332;9.860;2023-07-29T02:27:46;17.80;99.90
2523;DHT22;1272;53.332;9.860;2023-07-29T02:30:11;17.80;99.90
2523;DHT22;1272;53.332;9.860;2023-07-29T02:32:38;17.80;99.90
2523;DHT22;1272;53.332;9.860;2023-07-29T02:35:04;17.80;99.90
2523;DHT22;1272;53.332;9.860;2023-07-29T02:37:30;17.80;99.90
2523;DHT22;1272;53.332;9.860;2023-07-29T02:39:56;17.70;99.90
2523;DHT22;1272;53.332;9.860;2023-07-29T02:42:21;17.70;99.90
2523;DHT22;1272;53.332;9.860;2023-07-29T02:44:47;17.70;99.90
2523;DHT22;1272;53.332;9.860;2023-07-29T02:47:13;17.70;99.90
2523;DHT22;1272;53.332;9.860;2023-07-29T02:49:38;17.60;99.90
2523;DHT22;1272;53.332;9.860;2023-07-29T02:52:04;17.60;99.90
2523;DHT22;1272;53.332;9.860;2023-07-29T02:54:30;17.60;99.90
2523;DHT22;1272;53.332;9.860;2023-07-29T02:56:56;17.60;99.90
2523;DHT22;1272;53.332;9.860;2023-07-29T02:59:21;17.50;99.90
2523;DHT22;1272;53.332;9.860;2023-07-29T03:01:47;17.50;99.90
2523;DHT22;1272;53.332;9.860;2023-07-29T03:04:13;17.40;99.90
2523;DHT22;1272;53.332;9.860;2023-07-29T03:06:38;17.50;99.90
2523;DHT22;1272;53.332;9.860;2023-07-29T03:09:04;17.50;99.90
2523;DHT22;1272;53.332;9.860;2023-07-29T03:11:30;17.60;99.90
2523;DHT22;1272;53.332;9.860;2023-07-29T03:13:56;17.60;99.90
2523;DHT22;1272;53.332;9.860;2023-07-29T03:16:22;17.70;99.90
2523;DHT22;1272;53.332;9.860;2023-07-29T03:18:48;17.70;99.90
2523;DHT22;1272;53.332;9.860;2023-07-29T03:21:14;17.80;99.90
2523;DHT22;1272;53.332;9.860;2023-07-29T03:23:40;17.80;99.90
2523;DHT22;1272;53.332;9.860;2023-07-29T03:26:06;17.90;99.90
2523;DHT22;1272;53.332;9.860;2023-07-29T03:28:42;17.90;99.90
2523;DHT22;1272;53.332;9.860;2023-07-29T03:31:09;17.90;99.90
2523;DHT22;1272;53.332;9.860;2023-07-29T03:33:35;17.90;99.90
2523;DHT22;1272;53.332;9.860;2023-07-29T03:36:01;17.90;99.90
2523;DHT22;1272;53.332;9.860;2023-07-29T03:38:26;17.90;99.90
2523;DHT22;1272;53.332;9.860;2023-07-29T03:40:52;17.90;99.90
2523;DHT22;1272;53.332;9.860;2023-07-29T03:43:19;18.00;99.90
2523;DHT22;1272;53.332;9.860;2023-07-29T03:45:45;17.90;99.90
2523;DHT22;1272;53.332;9.860;2023-07-29T03:48:10;17.90;99.90
2523;DHT22;1272;53.332;9.860;2023-07-29T03:50:37;17.90;99.90
2523;DHT22;1272;53.332;9.860;2023-07-29T03:53:03;17.90;99.90
2523;DHT22;1272;53.332;9.860;2023-07-29T03:55:30;17.80;99.90
2523;DHT22;1272;53.332;9.860;2023-07-29T03:57:57;17.80;99.90
2523;DHT22;1272;53.332;9.860;2023-07-29T04:00:23;17.80;99.90
2523;DHT22;1272;53.332;9.860;2023-07-29T04:02:49;17.90;99.90
2523;DHT22;1272;53.332;9.860;2023-07-29T04:05:15;17.90;99.90
2523;DHT22;1272;53.332;9.860;2023-07-29T04:07:40;17.90;99.90
2523;DHT22;1272;53.332;9.860;2023-07-29T04:10:07;17.90;99.90
2523;DHT22;1272;53.332;9.860;2023-07-29T04:12:33;17.90;99.90
2523;DHT22;1272;53.332;9.860;2023-07-29T04:14:58;17.90;99.90
2523;DHT22;1272;53.332;9.860;2023-07-29T04:17:24;17.90;99.90
2523;DHT22;1272;53.332;9.860;2023-07-29T04:19:50;17.90;99.90
2523;DHT22;1272;53.332;9.860;2023-07-29T04:22:16;17.90;99.90
2523;DHT22;1272;53.332;9.860;2023-07-29T04:24:42;17.90;99.90
2523;DHT22;1272;53.332;9.860;2023-07-29T04:27:08;17.90;99.90
2523;DHT22;1272;53.332;9.860;2023-07-29T04:29:34;17.90;99.90
2523;DHT22;1272;53.332;9.860;2023-07-29T04:32:01;18.00;99.90
2523;DHT22;1272;53.332;9.860;2023-07-29T04:34:27;18.00;99.90
2523;DHT22;1272;53.332;9.860;2023-07-29T04:36:53;18.00;99.90
2523;DHT22;1272;53.332;9.860;2023-07-29T04:39:18;18.00;99.90
2523;DHT22;1272;53.332;9.860;2023-07-29T04:41:44;18.00;99.90
2523;DHT22;1272;53.332;9.860;2023-07-29T04:44:10;18.10;99.90
2523;DHT22;1272;53.332;9.860;2023-07-29T04:46:36;18.10;99.90
2523;DHT22;1272;53.332;9.860;2023-07-29T04:49:02;18.10;99.90
2523;DHT22;1272;53.332;9.860;2023-07-29T04:51:28;18.10;99.90
2523;DHT22;1272;53.332;9.860;2023-07-29T04:53:54;18.10;99.90
2523;DHT22;1272;53.332;9.860;2023-07-29T04:56:19;18.10;99.90
2523;DHT22;1272;53.332;9.860;2023-07-29T04:58:45;18.10;99.90
2523;DHT22;1272;53.332;9.860;2023-07-29T05:01:11;18.20;99.90
2523;DHT22;1272;53.332;9.860;2023-07-29T05:03:36;18.30;99.90
2523;DHT22;1272;53.332;9.860;2023-07-29T05:06:03;18.30;99.90
2523;DHT22;1272;53.332;9.860;2023-07-29T05:08:29;18.30;99.90
2523;DHT22;1272;53.332;9.860;2023-07-29T05:10:55;18.30;99.90
2523;DHT22;1272;53.332;9.860;2023-07-29T05:13:22;18.40;99.90
2523;DHT22;1272;53.332;9.860;2023-07-29T05:15:48;18.40;99.90
2523;DHT22;1272;53.332;9.860;2023-07-29T05:18:15;18.40;99.90
2523;DHT22;1272;53.332;9.860;2023-07-29T05:20:41;18.60;99.90
2523;DHT22;1272;53.332;9.860;2023-07-29T05:23:07;18.60;99.90
2523;DHT22;1272;53.332;9.860;2023-07-29T05:25:33;18.70;99.90
2523;DHT22;1272;53.332;9.860;2023-07-29T05:28:00;18.70;99.90
2523;DHT22;1272;53.332;9.860;2023-07-29T05:30:26;18.70;99.90
2523;DHT22;1272;53.332;9.860;2023-07-29T05:32:52;18.70;99.90
2523;DHT22;1272;53.332;9.860;2023-07-29T05:35:18;18.80;99.90
2523;DHT22;1272;53.332;9.860;2023-07-29T05:37:44;18.90;99.90
2523;DHT22;1272;53.332;9.860;2023-07-29T05:40:10;19.00;99.90
2523;DHT22;1272;53.332;9.860;2023-07-29T05:42:35;19.00;99.90
2523;DHT22;1272;53.332;9.860;2023-07-29T05:45:02;19.00;99.90
2523;DHT22;1272;53.332;9.860;2023-07-29T05:47:27;19.00;99.90
2523;DHT22;1272;53.332;9.860;2023-07-29T05:49:53;19.10;99.90
2523;DHT22;1272;53.332;9.860;2023-07-29T05:52:19;19.10;99.90
2523;DHT22;1272;53.332;9.860;2023-07-29T05:54:45;19.20;99.90
2523;DHT22;1272;53.332;9.860;2023-07-29T05:57:11;19.20;99.90
2523;DHT22;1272;53.332;9.860;2023-07-29T05:59:38;19.30;99.90
2523;DHT22;1272;53.332;9.860;2023-07-29T06:02:04;19.30;99.90
2523;DHT22;1272;53.332;9.860;2023-07-29T06:04:30;19.30;99.90
2523;DHT22;1272;53.332;9.860;2023-07-29T06:06:55;19.40;99.90
2523;DHT22;1272;53.332;9.860;2023-07-29T06:09:22;19.40;99.90
2523;DHT22;1272;53.332;9.860;2023-07-29T06:11:48;19.50;99.90
2523;DHT22;1272;53.332;9.860;2023-07-29T06:14:13;19.50;99.90
2523;DHT22;1272;53.332;9.860;2023-07-29T06:16:39;19.50;99.90
2523;DHT22;1272;53.332;9.860;2023-07-29T06:19:05;19.50;99.90
2523;DHT22;1272;53.332;9.860;2023-07-29T06:21:31;19.60;99.90
2523;DHT22;1272;53.332;9.860;2023-07-29T06:23:57;19.60;99.90
2523;DHT22;1272;53.332;9.860;2023-07-29T06:26:22;19.70;99.90
2523;DHT22;1272;53.332;9.860;2023-07-29T06:28:48;19.70;99.90
2523;DHT22;1272;53.332;9.860;2023-07-29T06:31:14;19.80;99.90
2523;DHT22;1272;53.332;9.860;2023-07-29T06:33:40;19.90;99.90
2523;DHT22;1272;53.332;9.860;2023-07-29T06:36:05;19.90;99.90
2523;DHT22;1272;53.332;9.860;2023-07-29T06:38:31;20.00;99.90
2523;DHT22;1272;53.332;9.860;2023-07-29T06:40:57;20.00;99.90
2523;DHT22;1272;53.332;9.860;2023-07-29T06:43:23;20.10;99.90
2523;DHT22;1272;53.332;9.860;2023-07-29T06:45:48;20.10;99.90
2523;DHT22;1272;53.332;9.860;2023-07-29T06:48:14;20.10;99.90
2523;DHT22;1272;53.332;9.860;2023-07-29T06:50:40;20.20;99.90
2523;DHT22;1272;53.332;9.860;2023-07-29T06:53:06;20.20;99.90
2523;DHT22;1272;53.332;9.860;2023-07-29T06:55:31;20.10;99.90
2523;DHT22;1272;53.332;9.860;2023-07-29T06:57:57;20.10;99.90
2523;DHT22;1272;53.332;9.860;2023-07-29T07:00:23;20.10;99.90
2523;DHT22;1272;53.332;9.860;2023-07-29T07:02:49;20.10;99.90
2523;DHT22;1272;53.332;9.860;2023-07-29T07:05:14;20.10;99.90
2523;DHT22;1272;53.332;9.860;2023-07-29T07:07:40;20.10;99.90
2523;DHT22;1272;53.332;9.860;2023-07-29T07:10:06;20.10;99.90
2523;DHT22;1272;53.332;9.860;2023-07-29T07:12:32;20.10;99.90
2523;DHT22;1272;53.332;9.860;2023-07-29T07:14:58;20.00;99.90
2523;DHT22;1272;53.332;9.860;2023-07-29T07:17:23;20.00;99.90
2523;DHT22;1272;53.332;9.860;2023-07-29T07:19:49;20.00;99.90
2523;DHT22;1272;53.332;9.860;2023-07-29T07:22:15;20.00;99.90
2523;DHT22;1272;53.332;9.860;2023-07-29T07:24:41;20.10;99.90
2523;DHT22;1272;53.332;9.860;2023-07-29T07:27:07;20.10;99.90
2523;DHT22;1272;53.332;9.860;2023-07-29T07:29:33;20.00;99.90
2523;DHT22;1272;53.332;9.860;2023-07-29T07:31:58;20.00;99.90
2523;DHT22;1272;53.332;9.860;2023-07-29T07:34:24;20.00;99.90
2523;DHT22;1272;53.332;9.860;2023-07-29T07:36:50;20.00;99.90
2523;DHT22;1272;53.332;9.860;2023-07-29T07:39:15;20.10;99.90
2523;DHT22;1272;53.332;9.860;2023-07-29T07:41:42;20.10;99.90
2523;DHT22;1272;53.332;9.860;2023-07-29T07:44:08;20.10;99.90
2523;DHT22;1272;53.332;9.860;2023-07-29T07:46:34;20.10;99.90
2523;DHT22;1272;53.332;9.860;2023-07-29T07:48:59;20.10;99.90
2523;DHT22;1272;53.332;9.860;2023-07-29T07:51:25;20.10;99.90
2523;DHT22;1272;53.332;9.860;2023-07-29T07:53:51;20.10;99.90
2523;DHT22;1272;53.332;9.860;2023-07-29T07:56:16;20.20;99.90
2523;DHT22;1272;53.332;9.860;2023-07-29T07:58:42;20.20;99.90
2523;DHT22;1272;53.332;9.860;2023-07-29T08:01:09;20.10;99.90
2523;DHT22;1272;53.332;9.860;2023-07-29T08:03:37;20.10;99.90
2523;DHT22;1272;53.332;9.860;2023-07-29T08:06:03;20.20;99.90
2523;DHT22;1272;53.332;9.860;2023-07-29T08:08:29;20.20;99.90
2523;DHT22;1272;53.332;9.860;2023-07-29T08:10:56;20.20;99.90
2523;DHT22;1272;53.332;9.860;2023-07-29T08:13:23;20.20;99.90
2523;DHT22;1272;53.332;9.860;2023-07-29T08:15:51;20.20;99.90
2523;DHT22;1272;53.332;9.860;2023-07-29T08:18:18;20.30;99.90
2523;DHT22;1272;53.332;9.860;2023-07-29T08:20:57;20.40;99.90
2523;DHT22;1272;53.332;9.860;2023-07-29T08:23:26;20.30;99.90
2523;DHT22;1272;53.332;9.860;2023-07-29T08:25:53;20.30;99.90
2523;DHT22;1272;53.332;9.860;2023-07-29T08:28:19;20.30;99.90
2523;DHT22;1272;53.332;9.860;2023-07-29T08:30:45;20.40;99.90
2523;DHT22;1272;53.332;9.860;2023-07-29T08:33:11;20.50;99.90
2523;DHT22;1272;53.332;9.860;2023-07-29T08:35:36;20.50;99.90
2523;DHT22;1272;53.332;9.860;2023-07-29T08:38:02;20.60;99.90
2523;DHT22;1272;53.332;9.860;2023-07-29T08:40:30;20.70;99.90
2523;DHT22;1272;53.332;9.860;2023-07-29T08:42:58;20.70;99.90
2523;DHT22;1272;53.332;9.860;2023-07-29T08:45:25;20.70;99.90
2523;DHT22;1272;53.332;9.860;2023-07-29T08:47:54;20.70;99.90
2523;DHT22;1272;53.332;9.860;2023-07-29T08:50:23;20.70;99.90
2523;DHT22;1272;53.332;9.860;2023-07-29T08:52:51;20.70;99.90
2523;DHT22;1272;53.332;9.860;2023-07-29T08:55:18;20.70;99.90
2523;DHT22;1272;53.332;9.860;2023-07-29T08:57:44;20.70;99.90
2523;DHT22;1272;53.332;9.860;2023-07-29T09:00:11;20.80;99.90
2523;DHT22;1272;53.332;9.860;2023-07-29T09:02:38;20.90;99.90
2523;DHT22;1272;53.332;9.860;2023-07-29T09:05:04;20.90;99.90
2523;DHT22;1272;53.332;9.860;2023-07-29T09:07:31;21.00;99.90
2523;DHT22;1272;53.332;9.860;2023-07-29T09:09:58;21.10;99.90
2523;DHT22;1272;53.332;9.860;2023-07-29T09:12:24;21.10;99.90
2523;DHT22;1272;53.332;9.860;2023-07-29T09:14:53;21.10;99.90
2523;DHT22;1272;53.332;9.860;2023-07-29T09:17:20;21.20;99.90
2523;DHT22;1272;53.332;9.860;2023-07-29T09:19:48;21.20;99.90
2523;DHT22;1272;53.332;9.860;2023-07-29T09:22:20;21.20;99.90
2523;DHT22;1272;53.332;9.860;2023-07-29T09:24:47;21.20;99.90
2523;DHT22;1272;53.332;9.860;2023-07-29T09:27:33;21.20;99.90
2523;DHT22;1272;53.332;9.860;2023-07-29T09:30:04;21.20;99.90
2523;DHT22;1272;53.332;9.860;2023-07-29T09:32:30;21.20;99.90
2523;DHT22;1272;53.332;9.860;2023-07-29T09:34:56;21.20;99.90
2523;DHT22;1272;53.332;9.860;2023-07-29T09:37:22;21.20;99.90
2523;DHT22;1272;53.332;9.860;2023-07-29T09:39:49;21.30;99.90
2523;DHT22;1272;53.332;9.860;2023-07-29T09:42:21;21.40;99.90
2523;DHT22;1272;53.332;9.860;2023-07-29T09:44:48;21.60;99.90
2523;DHT22;1272;53.332;9.860;2023-07-29T09:47:22;21.80;99.90
2523;DHT22;1272;53.332;9.860;2023-07-29T09:49:48;22.00;99.90
2523;DHT22;1272;53.332;9.860;2023-07-29T09:52:18;22.00;55.70
2523;DHT22;1272;53.332;9.860;2023-07-29T09:54:46;22.00;92.20
2523;DHT22;1272;53.332;9.860;2023-07-29T09:57:14;22.10;87.50
2523;DHT22;1272;53.332;9.860;2023-07-29T09:59:42;22.10;42.40
2523;DHT22;1272;53.332;9.860;2023-07-29T10:02:13;22.20;11.40
2523;DHT22;1272;53.332;9.860;2023-07-29T10:04:44;22.20;13.90
2523;DHT22;1272;53.332;9.860;2023-07-29T10:07:11;22.20;32.50
2523;DHT22;1272;53.332;9.860;2023-07-29T10:09:40;22.20;1.00
2523;DHT22;1272;53.332;9.860;2023-07-29T10:12:07;22.20;1.00
2523;DHT22;1272;53.332;9.860;2023-07-29T10:14:33;22.20;1.00
2523;DHT22;1272;53.332;9.860;2023-07-29T10:17:00;22.20;1.00
2523;DHT22;1272;53.332;9.860;2023-07-29T10:19:25;22.10;99.90
2523;DHT22;1272;53.332;9.860;2023-07-29T10:21:52;22.10;99.90
2523;DHT22;1272;53.332;9.860;2023-07-29T10:24:25;22.10;1.00
2523;DHT22;1272;53.332;9.860;2023-07-29T10:26:58;22.20;1.00
2523;DHT22;1272;53.332;9.860;2023-07-29T10:29:26;22.30;99.90
2523;DHT22;1272;53.332;9.860;2023-07-29T10:31:54;22.30;1.00
2523;DHT22;1272;53.332;9.860;2023-07-29T10:34:23;22.50;99.90
2523;DHT22;1272;53.332;9.860;2023-07-29T10:36:50;22.50;99.90
2523;DHT22;1272;53.332;9.860;2023-07-29T10:39:17;22.40;1.00
2523;DHT22;1272;53.332;9.860;2023-07-29T10:41:55;22.30;99.90
2523;DHT22;1272;53.332;9.860;2023-07-29T10:47:14;22.30;99.90
2523;DHT22;1272;53.332;9.860;2023-07-29T10:49:43;22.30;1.00
2523;DHT22;1272;53.332;9.860;2023-07-29T10:52:27;22.40;1.00
2523;DHT22;1272;53.332;9.860;2023-07-29T10:54:53;22.40;99.90
2523;DHT22;1272;53.332;9.860;2023-07-29T10:57:32;22.40;1.00
2523;DHT22;1272;53.332;9.860;2023-07-29T10:59:58;22.40;1.00
2523;DHT22;1272;53.332;9.860;2023-07-29T11:02:32;22.70;1.00
2523;DHT22;1272;53.332;9.860;2023-07-29T11:05:09;23.20;1.00
2523;DHT22;1272;53.332;9.860;2023-07-29T11:07:45;23.50;1.00
2523;DHT22;1272;53.332;9.860;2023-07-29T11:10:12;23.80;1.00
2523;DHT22;1272;53.332;9.860;2023-07-29T11:12:48;24.10;99.90
2523;DHT22;1272;53.332;9.860;2023-07-29T11:15:24;24.10;99.90
2523;DHT22;1272;53.332;9.860;2023-07-29T11:17:54;24.10;99.90
2523;DHT22;1272;53.332;9.860;2023-07-29T11:20:22;24.00;99.90
2523;DHT22;1272;53.332;9.860;2023-07-29T11:22:48;24.10;99.90
2523;DHT22;1272;53.332;9.860;2023-07-29T11:25:15;24.20;14.20
2523;DHT22;1272;53.332;9.860;2023-07-29T11:27:41;24.40;1.00
2523;DHT22;1272;53.332;9.860;2023-07-29T11:30:12;24.60;99.90
2523;DHT22;1272;53.332;9.860;2023-07-29T11:32:39;24.80;99.90
2523;DHT22;1272;53.332;9.860;2023-07-29T11:35:16;25.10;99.90
2523;DHT22;1272;53.332;9.860;2023-07-29T11:37:44;25.30;37.70
2523;DHT22;1272;53.332;9.860;2023-07-29T11:40:22;25.20;1.00
2523;DHT22;1272;53.332;9.860;2023-07-29T11:42:49;25.20;1.00
2523;DHT22;1272;53.332;9.860;2023-07-29T11:45:16;25.40;1.00
2523;DHT22;1272;53.332;9.860;2023-07-29T11:47:42;25.40;1.00
2523;DHT22;1272;53.332;9.860;2023-07-29T11:50:10;25.20;1.00
2523;DHT22;1272;53.332;9.860;2023-07-29T11:52:37;25.00;1.00
2523;DHT22;1272;53.332;9.860;2023-07-29T11:55:04;24.80;1.00
2523;DHT22;1272;53.332;9.860;2023-07-29T11:57:31;25.00;1.00
2523;DHT22;1272;53.332;9.860;2023-07-29T11:59:59;25.20;1.00
2523;DHT22;1272;53.332;9.860;2023-07-29T12:02:25;25.40;1.00
2523;DHT22;1272;53.332;9.860;2023-07-29T12:04:52;25.30;99.90
2523;DHT22;1272;53.332;9.860;2023-07-29T12:07:18;25.20;1.00
2523;DHT22;1272;53.332;9.860;2023-07-29T12:09:46;25.20;99.90
2523;DHT22;1272;53.332;9.860;2023-07-29T12:12:12;25.30;99.90
2523;DHT22;1272;53.332;9.860;2023-07-29T12:14:38;25.50;99.90
2523;DHT22;1272;53.332;9.860;2023-07-29T12:17:05;25.80;99.90
2523;DHT22;1272;53.332;9.860;2023-07-29T12:19:38;25.80;99.90
2523;DHT22;1272;53.332;9.860;2023-07-29T12:22:05;26.10;1.00
2523;DHT22;1272;53.332;9.860;2023-07-29T12:24:32;26.30;99.90
2523;DHT22;1272;53.332;9.860;2023-07-29T12:26:58;26.30;99.90
2523;DHT22;1272;53.332;9.860;2023-07-29T12:29:25;26.30;99.90
2523;DHT22;1272;53.332;9.860;2023-07-29T12:32:03;26.00;99.90
2523;DHT22;1272;53.332;9.860;2023-07-29T12:34:31;26.00;99.90
2523;DHT22;1272;53.332;9.860;2023-07-29T12:36:58;25.90;99.90
2523;DHT22;1272;53.332;9.860;2023-07-29T12:39:25;25.80;99.90
2523;DHT22;1272;53.332;9.860;2023-07-29T12:41:53;25.40;99.90
2523;DHT22;1272;53.332;9.860;2023-07-29T12:44:19;25.10;99.90
2523;DHT22;1272;53.332;9.860;2023-07-29T12:46:45;24.90;99.90
2523;DHT22;1272;53.332;9.860;2023-07-29T12:49:10;24.70;99.90
2523;DHT22;1272;53.332;9.860;2023-07-29T12:51:36;24.70;1.00
2523;DHT22;1272;53.332;9.860;2023-07-29T12:54:03;25.00;99.90
2523;DHT22;1272;53.332;9.860;2023-07-29T12:56:30;25.20;99.90
2523;DHT22;1272;53.332;9.860;2023-07-29T12:58:57;25.50;99.90
2523;DHT22;1272;53.332;9.860;2023-07-29T13:01:26;25.80;99.90
2523;DHT22;1272;53.332;9.860;2023-07-29T13:03:52;26.20;99.90
2523;DHT22;1272;53.332;9.860;2023-07-29T13:06:18;26.30;99.90
2523;DHT22;1272;53.332;9.860;2023-07-29T13:08:44;26.40;99.90
2523;DHT22;1272;53.332;9.860;2023-07-29T13:11:10;26.40;99.90
2523;DHT22;1272;53.332;9.860;2023-07-29T13:13:36;26.40;99.90
2523;DHT22;1272;53.332;9.860;2023-07-29T13:16:02;26.00;99.90
2523;DHT22;1272;53.332;9.860;2023-07-29T13:18:28;25.40;99.90
2523;DHT22;1272;53.332;9.860;2023-07-29T13:20:54;25.80;99.90
2523;DHT22;1272;53.332;9.860;2023-07-29T13:23:20;25.70;99.90
2523;DHT22;1272;53.332;9.860;2023-07-29T13:25:46;25.60;99.90
2523;DHT22;1272;53.332;9.860;2023-07-29T13:28:12;25.50;99.90
2523;DHT22;1272;53.332;9.860;2023-07-29T13:30:39;25.50;99.90
2523;DHT22;1272;53.332;9.860;2023-07-29T13:33:05;25.50;99.90
2523;DHT22;1272;53.332;9.860;2023-07-29T13:35:31;25.70;99.90
2523;DHT22;1272;53.332;9.860;2023-07-29T13:37:57;25.70;99.90
2523;DHT22;1272;53.332;9.860;2023-07-29T13:40:22;25.90;99.90
2523;DHT22;1272;53.332;9.860;2023-07-29T13:42:48;26.20;99.90
2523;DHT22;1272;53.332;9.860;2023-07-29T13:45:14;26.40;99.90
2523;DHT22;1272;53.332;9.860;2023-07-29T13:47:40;26.20;99.90
2523;DHT22;1272;53.332;9.860;2023-07-29T13:50:06;26.40;94.40
2523;DHT22;1272;53.332;9.860;2023-07-29T13:52:36;26.60;97.00
2523;DHT22;1272;53.332;9.860;2023-07-29T13:55:02;26.80;92.00
2523;DHT22;1272;53.332;9.860;2023-07-29T13:57:27;27.20;45.70
2523;DHT22;1272;53.332;9.860;2023-07-29T13:59:53;27.40;22.90
2523;DHT22;1272;53.332;9.860;2023-07-29T14:02:19;27.40;12.80
2523;DHT22;1272;53.332;9.860;2023-07-29T14:04:44;27.30;10.60
2523;DHT22;1272;53.332;9.860;2023-07-29T14:07:10;27.40;15.20
2523;DHT22;1272;53.332;9.860;2023-07-29T14:09:36;27.60;1.00
2523;DHT22;1272;53.332;9.860;2023-07-29T14:12:02;27.60;6.30
2523;DHT22;1272;53.332;9.860;2023-07-29T14:14:28;27.70;4.00
2523;DHT22;1272;53.332;9.860;2023-07-29T14:16:55;27.70;1.00
2523;DHT22;1272;53.332;9.860;2023-07-29T14:19:20;27.80;1.00
2523;DHT22;1272;53.332;9.860;2023-07-29T14:21:46;27.90;1.00
2523;DHT22;1272;53.332;9.860;2023-07-29T14:24:12;27.90;1.00
2523;DHT22;1272;53.332;9.860;2023-07-29T14:26:37;27.90;1.00
2523;DHT22;1272;53.332;9.860;2023-07-29T14:29:03;27.90;1.00
2523;DHT22;1272;53.332;9.860;2023-07-29T14:31:28;28.10;1.00
2523;DHT22;1272;53.332;9.860;2023-07-29T14:33:55;28.30;1.00
2523;DHT22;1272;53.332;9.860;2023-07-29T14:36:21;28.50;1.00
2523;DHT22;1272;53.332;9.860;2023-07-29T14:38:47;28.60;1.00
2523;DHT22;1272;53.332;9.860;2023-07-29T14:41:12;28.60;1.00
2523;DHT22;1272;53.332;9.860;2023-07-29T14:43:38;28.60;1.00
2523;DHT22;1272;53.332;9.860;2023-07-29T14:46:04;28.70;1.00
2523;DHT22;1272;53.332;9.860;2023-07-29T14:48:30;28.70;1.00
2523;DHT22;1272;53.332;9.860;2023-07-29T14:50:56;28.70;1.00
2523;DHT22;1272;53.332;9.860;2023-07-29T14:53:22;28.70;1.00
2523;DHT22;1272;53.332;9.860;2023-07-29T14:55:47;28.60;1.00
2523;DHT22;1272;53.332;9.860;2023-07-29T14:58:13;28.40;1.00
2523;DHT22;1272;53.332;9.860;2023-07-29T15:00:38;28.60;1.00
2523;DHT22;1272;53.332;9.860;2023-07-29T15:03:04;28.90;1.00
2523;DHT22;1272;53.332;9.860;2023-07-29T15:05:32;29.00;1.00
2523;DHT22;1272;53.332;9.860;2023-07-29T15:07:58;29.20;1.00
2523;DHT22;1272;53.332;9.860;2023-07-29T15:10:24;29.10;1.00
2523;DHT22;1272;53.332;9.860;2023-07-29T15:12:49;29.10;1.00
2523;DHT22;1272;53.332;9.860;2023-07-29T15:15:15;28.90;1.00
2523;DHT22;1272;53.332;9.860;2023-07-29T15:17:41;28.80;1.00
2523;DHT22;1272;53.332;9.860;2023-07-29T15:20:07;28.80;1.00
2523;DHT22;1272;53.332;9.860;2023-07-29T15:22:33;28.80;1.00
2523;DHT22;1272;53.332;9.860;2023-07-29T15:24:58;28.80;1.00
2523;DHT22;1272;53.332;9.860;2023-07-29T15:27:28;28.60;1.00
2523;DHT22;1272;53.332;9.860;2023-07-29T15:29:54;28.80;1.00
2523;DHT22;1272;53.332;9.860;2023-07-29T15:32:20;28.80;1.00
2523;DHT22;1272;53.332;9.860;2023-07-29T15:34:46;28.60;1.00
2523;DHT22;1272;53.332;9.860;2023-07-29T15:37:12;28.50;1.00
2523;DHT22;1272;53.332;9.860;2023-07-29T15:39:38;28.60;1.00
2523;DHT22;1272;53.332;9.860;2023-07-29T15:42:04;28.60;1.00
2523;DHT22;1272;53.332;9.860;2023-07-29T15:44:30;28.40;1.00
2523;DHT22;1272;53.332;9.860;2023-07-29T15:46:56;27.90;1.00
2523;DHT22;1272;53.332;9.860;2023-07-29T15:49:22;27.60;1.00
2523;DHT22;1272;53.332;9.860;2023-07-29T15:51:48;27.30;1.00
2523;DHT22;1272;53.332;9.860;2023-07-29T15:54:14;26.90;1.00
2523;DHT22;1272;53.332;9.860;2023-07-29T15:56:40;26.60;1.00
2523;DHT22;1272;53.332;9.860;2023-07-29T15:59:07;26.40;1.00
2523;DHT22;1272;53.332;9.860;2023-07-29T16:01:32;26.20;1.00
2523;DHT22;1272;53.332;9.860;2023-07-29T16:03:58;26.00;1.00
2523;DHT22;1272;53.332;9.860;2023-07-29T16:06:25;25.80;1.00
2523;DHT22;1272;53.332;9.860;2023-07-29T16:08:50;25.60;8.20